sensor_id;sensor_type;location;lat;lon;timestamp;pressure;altitude;pressure_sealevel;temperature;humidity
23589;BME280;11972;48.078;11.876;2023-07-13T00:00:36;95262.75;;;17.85;100.00
23589;BME280;11972;48.078;11.876;2023-07-13T00:04:36;95275.53;;;17.83;100.00
23589;BME280;11972;48.078;11.876;2023-07-13T00:08:37;95261.28;;;17.78;100.00
23589;BME280;11972;48.078;11.876;2023-07-13T00:12:38;95240.56;;;17.73;100.00
23589;BME280;11972;48.078;11.876;2023-07-13T00:16:39;95238.38;;;17.70;100.00
23589;BME280;11972;48.078;11.876;2023-07-13T00:20:41;95236.72;;;17.69;100.00
23589;BME280;11972;48.078;11.876;2023-07-13T00:24:41;95261.72;;;17.75;100.00
23589;BME280;11972;48.078;11.876;2023-07-13T00:28:41;95261.28;;;17.78;100.00
23589;BME280;11972;48.078;11.876;2023-07-13T00:32:42;95260.56;;;17.82;100.00
23589;BME280;11972;48.078;11.876;2023-07-13T00:36:42;95259.63;;;17.89;100.00
23589;BME280;11972;48.078;11.876;2023-07-13T00:40:42;95270.41;;;17.94;100.00
23589;BME280;11972;48.078;11.876;2023-07-13T00:45:04;95254.53;;;17.87;100.00
23589;BME280;11972;48.078;11.876;2023-07-13T00:49:06;95259.88;;;17.75;100.00
23589;BME280;11972;48.078;11.876;2023-07-13T00:53:07;95254.41;;;17.70;100.00
23589;BME280;11972;48.078;11.876;2023-07-13T00:57:11;95256.47;;;17.68;100.00
23589;BME280;11972;48.078;11.876;2023-07-13T01:01:12;95271.13;;;17.54;100.00
23589;BME280;11972;48.078;11.876;2023-07-13T01:05:15;95281.09;;;17.47;100.00
23589;BME280;11972;48.078;11.876;2023-07-13T01:09:15;95265.78;;;17.54;100.00
23589;BME280;11972;48.078;11.876;2023-07-13T01:13:16;95256.38;;;17.63;100.00
23589;BME280;11972;48.078;11.876;2023-07-13T01:17:16;95256.94;;;17.65;100.00
23589;BME280;11972;48.078;11.876;2023-07-13T01:21:17;95226.75;;;17.65;100.00
23589;BME280;11972;48.078;11.876;2023-07-13T01:25:20;95232.22;;;17.58;100.00
23589;BME280;11972;48.078;11.876;2023-07-13T01:29:21;95224.66;;;17.55;100.00
23589;BME280;11972;48.078;11.876;2023-07-13T01:33:22;95219.44;;;17.48;100.00
23589;BME280;11972;48.078;11.876;2023-07-13T01:37:24;95211.56;;;17.42;100.00
23589;BME280;11972;48.078;11.876;2023-07-13T01:41:25;95212.47;;;17.35;100.00
23589;BME280;11972;48.078;11.876;2023-07-13T01:45:25;95214.78;;;17.32;100.00
23589;BME280;11972;48.078;11.876;2023-07-13T01:49:26;95235.56;;;17.30;100.00
23589;BME280;11972;48.078;11.876;2023-07-13T01:53:26;95254.81;;;17.32;100.00
23589;BME280;11972;48.078;11.876;2023-07-13T01:57:26;95256.81;;;17.36;100.00
23589;BME280;11972;48.078;11.876;2023-07-13T02:01:27;95243.69;;;17.47;100.00
23589;BME280;11972;48.078;11.876;2023-07-13T02:05:27;95239.53;;;17.51;100.00
23589;BME280;11972;48.078;11.876;2023-07-13T02:09:27;95241.75;;;17.54;100.00
23589;BME280;11972;48.078;11.876;2023-07-13T02:13:28;95249.75;;;17.54;100.00
23589;BME280;11972;48.078;11.876;2023-07-13T02:17:28;95249.28;;;17.57;100.00
23589;BME280;11972;48.078;11.876;2023-07-13T02:21:29;95259.59;;;17.65;100.00
23589;BME280;11972;48.078;11.876;2023-07-13T02:25:29;95253.78;;;17.68;100.00
23589;BME280;11972;48.078;11.876;2023-07-13T02:29:29;95252.75;;;17.69;100.00
23589;BME280;11972;48.078;11.876;2023-07-13T02:33:30;95264.28;;;17.70;100.00
23589;BME280;11972;48.078;11.876;2023-07-13T02:37:30;95274.13;;;17.69;100.00
23589;BME280;11972;48.078;11.876;2023-07-13T02:41:31;95274.94;;;17.70;100.00
23589;BME280;11972;48.078;11.876;2023-07-13T02:45:31;95286.31;;;17.53;100.00
23589;BME280;11972;48.078;11.876;2023-07-13T02:49:32;95277.84;;;17.45;100.00
23589;BME280;11972;48.078;11.876;2023-07-13T02:53:32;95286.66;;;17.45;100.00
23589;BME280;11972;48.078;11.876;2023-07-13T02:57:32;95292.34;;;17.49;100.00
23589;BME280;11972;48.078;11.876;2023-07-13T03:01:34;95305.38;;;17.57;100.00
23589;BME280;11972;48.078;11.876;2023-07-13T03:05:37;95302.22;;;17.60;100.00
23589;BME280;11972;48.078;11.876;2023-07-13T03:09:37;95302.00;;;17.61;100.00
23589;BME280;11972;48.078;11.876;2023-07-13T03:13:39;95311.88;;;17.49;100.00
23589;BME280;11972;48.078;11.876;2023-07-13T03:17:39;95308.00;;;17.33;100.00
23589;BME280;11972;48.078;11.876;2023-07-13T03:21:40;95306.91;;;17.23;100.00
23589;BME280;11972;48.078;11.876;2023-07-13T03:25:40;95320.72;;;17.08;100.00
23589;BME280;11972;48.078;11.876;2023-07-13T03:29:40;95334.44;;;16.93;100.00
23589;BME280;11972;48.078;11.876;2023-07-13T03:33:41;95334.09;;;16.90;100.00
23589;BME280;11972;48.078;11.876;2023-07-13T03:37:42;95334.91;;;16.90;100.00
23589;BME280;11972;48.078;11.876;2023-07-13T03:41:42;95332.47;;;16.89;100.00
23589;BME280;11972;48.078;11.876;2023-07-13T03:45:42;95338.59;;;16.89;100.00
23589;BME280;11972;48.078;11.876;2023-07-13T03:49:43;95322.84;;;16.88;100.00
23589;BME280;11972;48.078;11.876;2023-07-13T03:53:45;95308.91;;;16.85;100.00
23589;BME280;11972;48.078;11.876;2023-07-13T03:57:46;95331.41;;;16.90;100.00
23589;BME280;11972;48.078;11.876;2023-07-13T04:01:46;95342.69;;;16.92;100.00
23589;BME280;11972;48.078;11.876;2023-07-13T04:05:47;95350.19;;;16.83;100.00
23589;BME280;11972;48.078;11.876;2023-07-13T04:09:47;95354.84;;;16.69;100.00
23589;BME280;11972;48.078;11.876;2023-07-13T04:13:48;95352.63;;;16.48;100.00
23589;BME280;11972;48.078;11.876;2023-07-13T04:17:48;95357.22;;;16.41;100.00
23589;BME280;11972;48.078;11.876;2023-07-13T04:21:49;95352.78;;;16.34;100.00
23589;BME280;11972;48.078;11.876;2023-07-13T04:25:52;95346.19;;;16.37;100.00
23589;BME280;11972;48.078;11.876;2023-07-13T04:29:53;95336.25;;;16.44;100.00
23589;BME280;11972;48.078;11.876;2023-07-13T04:33:53;95361.38;;;16.36;100.00
23589;BME280;11972;48.078;11.876;2023-07-13T04:37:53;95361.78;;;16.33;100.00
23589;BME280;11972;48.078;11.876;2023-07-13T04:41:54;95365.34;;;16.46;100.00
23589;BME280;11972;48.078;11.876;2023-07-13T04:45:56;95366.09;;;16.53;100.00
23589;BME280;11972;48.078;11.876;2023-07-13T04:49:57;95363.44;;;16.53;100.00
23589;BME280;11972;48.078;11.876;2023-07-13T04:53:57;95360.78;;;16.53;100.00
23589;BME280;11972;48.078;11.876;2023-07-13T04:57:58;95363.72;;;16.45;100.00
23589;BME280;11972;48.078;11.876;2023-07-13T05:01:59;95364.91;;;16.49;100.00
23589;BME280;11972;48.078;11.876;2023-07-13T05:06:03;95378.25;;;16.67;100.00
23589;BME280;11972;48.078;11.876;2023-07-13T05:10:04;95377.44;;;16.85;100.00
23589;BME280;11972;48.078;11.876;2023-07-13T05:14:04;95381.78;;;16.98;100.00
23589;BME280;11972;48.078;11.876;2023-07-13T05:18:05;95386.69;;;16.82;100.00
23589;BME280;11972;48.078;11.876;2023-07-13T05:22:05;95391.41;;;16.62;100.00
23589;BME280;11972;48.078;11.876;2023-07-13T05:26:05;95385.88;;;16.45;100.00
23589;BME280;11972;48.078;11.876;2023-07-13T05:30:06;95383.28;;;16.57;100.00
23589;BME280;11972;48.078;11.876;2023-07-13T05:34:07;95380.03;;;16.73;100.00
23589;BME280;11972;48.078;11.876;2023-07-13T05:38:07;95378.78;;;16.76;100.00
23589;BME280;11972;48.078;11.876;2023-07-13T05:42:07;95380.19;;;16.78;100.00
23589;BME280;11972;48.078;11.876;2023-07-13T05:46:08;95392.50;;;16.79;100.00
23589;BME280;11972;48.078;11.876;2023-07-13T05:50:08;95391.69;;;16.79;100.00
23589;BME280;11972;48.078;11.876;2023-07-13T05:54:09;95393.44;;;16.67;100.00
23589;BME280;11972;48.078;11.876;2023-07-13T05:58:11;95389.59;;;16.62;100.00
23589;BME280;11972;48.078;11.876;2023-07-13T06:02:11;95394.38;;;16.54;100.00
23589;BME280;11972;48.078;11.876;2023-07-13T06:06:12;95397.59;;;16.62;100.00
23589;BME280;11972;48.078;11.876;2023-07-13T06:10:13;95403.00;;;16.74;100.00
23589;BME280;11972;48.078;11.876;2023-07-13T06:14:13;95406.91;;;16.72;100.00
23589;BME280;11972;48.078;11.876;2023-07-13T06:18:13;95413.75;;;16.86;100.00
23589;BME280;11972;48.078;11.876;2023-07-13T06:22:14;95415.81;;;17.32;100.00
23589;BME280;11972;48.078;11.876;2023-07-13T06:26:14;95412.88;;;17.64;100.00
23589;BME280;11972;48.078;11.876;2023-07-13T06:30:15;95411.00;;;17.95;100.00
23589;BME280;11972;48.078;11.876;2023-07-13T06:34:15;95413.44;;;18.08;100.00
23589;BME280;11972;48.078;11.876;2023-07-13T06:38:15;95414.03;;;17.98;100.00
23589;BME280;11972;48.078;11.876;2023-07-13T06:42:16;95416.66;;;17.75;100.00
23589;BME280;11972;48.078;11.876;2023-07-13T06:46:17;95426.34;;;17.57;100.00
23589;BME280;11972;48.078;11.876;2023-07-13T06:50:18;95433.03;;;17.36;100.00
23589;BME280;11972;48.078;11.876;2023-07-13T06:54:18;95438.28;;;17.55;100.00
23589;BME280;11972;48.078;11.876;2023-07-13T06:58:19;95445.91;;;17.70;100.00
23589;BME280;11972;48.078;11.876;2023-07-13T07:02:19;95431.66;;;17.88;100.00
23589;BME280;11972;48.078;11.876;2023-07-13T07:06:21;95435.38;;;17.87;100.00
23589;BME280;11972;48.078;11.876;2023-07-13T07:10:25;95436.59;;;17.72;100.00
23589;BME280;11972;48.078;11.876;2023-07-13T07:14:25;95436.47;;;17.67;100.00
23589;BME280;11972;48.078;11.876;2023-07-13T07:18:26;95445.28;;;17.68;100.00
23589;BME280;11972;48.078;11.876;2023-07-13T07:22:26;95448.72;;;17.75;100.00
23589;BME280;11972;48.078;11.876;2023-07-13T07:26:27;95438.41;;;17.78;100.00
23589;BME280;11972;48.078;11.876;2023-07-13T07:30:28;95437.06;;;18.11;100.00
23589;BME280;11972;48.078;11.876;2023-07-13T07:34:28;95436.22;;;18.46;100.00
23589;BME280;11972;48.078;11.876;2023-07-13T07:38:28;95440.53;;;18.70;100.00
23589;BME280;11972;48.078;11.876;2023-07-13T07:42:29;95447.38;;;18.66;100.00
23589;BME280;11972;48.078;11.876;2023-07-13T07:46:29;95445.06;;;18.46;100.00
23589;BME280;11972;48.078;11.876;2023-07-13T07:50:30;95458.91;;;18.31;100.00
23589;BME280;11972;48.078;11.876;2023-07-13T07:54:31;95479.13;;;18.27;100.00
23589;BME280;11972;48.078;11.876;2023-07-13T07:58:31;95486.31;;;18.39;100.00
23589;BME280;11972;48.078;11.876;2023-07-13T08:02:31;95485.16;;;18.34;100.00
23589;BME280;11972;48.078;11.876;2023-07-13T08:06:32;95475.88;;;18.37;100.00
23589;BME280;11972;48.078;11.876;2023-07-13T08:10:35;95483.09;;;18.60;100.00
23589;BME280;11972;48.078;11.876;2023-07-13T08:14:36;95499.84;;;18.91;100.00
23589;BME280;11972;48.078;11.876;2023-07-13T08:18:38;95493.53;;;18.97;100.00
23589;BME280;11972;48.078;11.876;2023-07-13T08:22:38;95490.00;;;19.31;100.00
23589;BME280;11972;48.078;11.876;2023-07-13T08:26:39;95490.72;;;19.15;100.00
23589;BME280;11972;48.078;11.876;2023-07-13T08:30:39;95494.50;;;18.91;100.00
23589;BME280;11972;48.078;11.876;2023-07-13T08:34:39;95505.19;;;18.67;100.00
23589;BME280;11972;48.078;11.876;2023-07-13T08:38:40;95511.81;;;18.41;100.00
23589;BME280;11972;48.078;11.876;2023-07-13T08:42:54;95505.75;;;18.34;100.00
23589;BME280;11972;48.078;11.876;2023-07-13T08:46:58;95502.72;;;18.42;100.00
23589;BME280;11972;48.078;11.876;2023-07-13T08:51:09;95514.25;;;18.43;100.00
23589;BME280;11972;48.078;11.876;2023-07-13T08:55:15;95527.41;;;18.56;100.00
23589;BME280;11972;48.078;11.876;2023-07-13T08:59:17;95527.22;;;18.81;100.00
23589;BME280;11972;48.078;11.876;2023-07-13T09:03:22;95537.06;;;19.04;100.00
23589;BME280;11972;48.078;11.876;2023-07-13T09:11:56;95535.09;;;18.52;100.00
23589;BME280;11972;48.078;11.876;2023-07-13T09:16:00;95543.06;;;18.29;100.00
23589;BME280;11972;48.078;11.876;2023-07-13T09:20:16;95537.63;;;18.35;100.00
23589;BME280;11972;48.078;11.876;2023-07-13T09:24:39;95543.66;;;18.43;100.00
23589;BME280;11972;48.078;11.876;2023-07-13T09:28:44;95540.50;;;18.34;100.00
23589;BME280;11972;48.078;11.876;2023-07-13T09:32:47;95539.09;;;18.20;100.00
23589;BME280;11972;48.078;11.876;2023-07-13T09:36:50;95539.25;;;18.37;100.00
23589;BME280;11972;48.078;11.876;2023-07-13T09:41:02;95535.75;;;18.36;100.00
23589;BME280;11972;48.078;11.876;2023-07-13T09:45:09;95541.66;;;18.26;100.00
23589;BME280;11972;48.078;11.876;2023-07-13T09:49:10;95536.28;;;18.03;100.00
23589;BME280;11972;48.078;11.876;2023-07-13T09:53:16;95537.88;;;18.04;100.00
23589;BME280;11972;48.078;11.876;2023-07-13T09:57:19;95544.72;;;18.00;100.00
23589;BME280;11972;48.078;11.876;2023-07-13T10:01:46;95534.53;;;18.08;100.00
23589;BME280;11972;48.078;11.876;2023-07-13T10:05:50;95541.94;;;18.60;100.00
23589;BME280;11972;48.078;11.876;2023-07-13T10:09:55;95539.19;;;19.02;100.00
23589;BME280;11972;48.078;11.876;2023-07-13T10:17:59;95539.63;;;20.37;100.00
23589;BME280;11972;48.078;11.876;2023-07-13T10:22:12;95542.59;;;21.24;100.00
23589;BME280;11972;48.078;11.876;2023-07-13T10:26:27;95556.47;;;21.38;100.00
23589;BME280;11972;48.078;11.876;2023-07-13T10:30:34;95561.41;;;21.90;100.00
23589;BME280;11972;48.078;11.876;2023-07-13T10:34:35;95556.53;;;22.68;100.00
23589;BME280;11972;48.078;11.876;2023-07-13T10:38:36;95565.94;;;22.71;100.00
23589;BME280;11972;48.078;11.876;2023-07-13T10:42:39;95564.25;;;22.92;100.00
23589;BME280;11972;48.078;11.876;2023-07-13T10:46:43;95561.72;;;22.80;100.00
23589;BME280;11972;48.078;11.876;2023-07-13T10:50:46;95569.94;;;22.31;100.00
23589;BME280;11972;48.078;11.876;2023-07-13T10:54:49;95569.31;;;22.51;100.00
23589;BME280;11972;48.078;11.876;2023-07-13T10:59:02;95576.56;;;23.20;100.00
23589;BME280;11972;48.078;11.876;2023-07-13T11:03:13;95577.28;;;24.15;100.00
23589;BME280;11972;48.078;11.876;2023-07-13T11:15:39;95566.66;;;25.72;100.00
23589;BME280;11972;48.078;11.876;2023-07-13T11:19:43;95574.72;;;26.47;100.00
23589;BME280;11972;48.078;11.876;2023-07-13T11:23:45;95585.94;;;26.64;100.00
23589;BME280;11972;48.078;11.876;2023-07-13T11:28:04;95584.13;;;26.89;100.00
23589;BME280;11972;48.078;11.876;2023-07-13T11:32:25;95580.53;;;27.28;100.00
23589;BME280;11972;48.078;11.876;2023-07-13T11:36:31;95585.22;;;27.99;100.00
23589;BME280;11972;48.078;11.876;2023-07-13T11:40:36;95593.03;;;27.82;100.00
23589;BME280;11972;48.078;11.876;2023-07-13T11:44:42;95585.56;;;27.92;100.00
23589;BME280;11972;48.078;11.876;2023-07-13T11:48:44;95585.25;;;26.83;100.00
23589;BME280;11972;48.078;11.876;2023-07-13T11:52:45;95585.50;;;26.52;100.00
23589;BME280;11972;48.078;11.876;2023-07-13T11:56:46;95582.13;;;25.51;100.00
23589;BME280;11972;48.078;11.876;2023-07-13T12:00:47;95573.22;;;24.23;100.00
23589;BME280;11972;48.078;11.876;2023-07-13T12:04:49;95562.66;;;23.96;100.00
23589;BME280;11972;48.078;11.876;2023-07-13T12:08:52;95563.09;;;23.67;100.00
23589;BME280;11972;48.078;11.876;2023-07-13T12:12:57;95550.50;;;23.31;100.00
23589;BME280;11972;48.078;11.876;2023-07-13T12:16:58;95552.56;;;23.66;100.00
23589;BME280;11972;48.078;11.876;2023-07-13T12:20:59;95543.47;;;23.87;100.00
23589;BME280;11972;48.078;11.876;2023-07-13T12:25:00;95556.22;;;24.12;100.00
23589;BME280;11972;48.078;11.876;2023-07-13T12:29:01;95546.47;;;23.96;100.00
23589;BME280;11972;48.078;11.876;2023-07-13T12:33:11;95542.16;;;25.43;100.00
23589;BME280;11972;48.078;11.876;2023-07-13T12:37:12;95540.69;;;25.71;100.00
23589;BME280;11972;48.078;11.876;2023-07-13T12:41:15;95549.44;;;25.47;100.00
23589;BME280;11972;48.078;11.876;2023-07-13T12:45:23;95541.44;;;25.12;100.00
23589;BME280;11972;48.078;11.876;2023-07-13T12:49:27;95544.78;;;25.63;100.00
23589;BME280;11972;48.078;11.876;2023-07-13T12:53:30;95535.69;;;26.48;100.00
23589;BME280;11972;48.078;11.876;2023-07-13T12:57:39;95540.31;;;26.47;100.00
23589;BME280;11972;48.078;11.876;2023-07-13T13:01:39;95531.28;;;26.18;100.00
23589;BME280;11972;48.078;11.876;2023-07-13T13:05:39;95533.81;;;26.78;100.00
23589;BME280;11972;48.078;11.876;2023-07-13T13:09:42;95525.41;;;27.61;100.00
23589;BME280;11972;48.078;11.876;2023-07-13T13:13:43;95526.34;;;27.76;100.00
23589;BME280;11972;48.078;11.876;2023-07-13T13:17:44;95545.81;;;27.01;100.00
23589;BME280;11972;48.078;11.876;2023-07-13T13:21:46;95528.91;;;26.06;100.00
23589;BME280;11972;48.078;11.876;2023-07-13T13:25:49;95540.97;;;25.69;100.00
23589;BME280;11972;48.078;11.876;2023-07-13T13:29:51;95536.44;;;25.60;100.00
23589;BME280;11972;48.078;11.876;2023-07-13T13:33:54;95537.81;;;25.42;100.00
23589;BME280;11972;48.078;11.876;2023-07-13T13:37:56;95533.91;;;25.79;100.00
23589;BME280;11972;48.078;11.876;2023-07-13T13:41:56;95525.31;;;26.89;100.00
23589;BME280;11972;48.078;11.876;2023-07-13T13:45:58;95535.56;;;27.51;100.00
23589;BME280;11972;48.078;11.876;2023-07-13T13:50:00;95531.75;;;27.28;100.00
23589;BME280;11972;48.078;11.876;2023-07-13T13:54:00;95525.94;;;28.06;100.00
23589;BME280;11972;48.078;11.876;2023-07-13T13:58:02;95528.50;;;28.54;100.00
23589;BME280;11972;48.078;11.876;2023-07-13T14:02:19;95528.59;;;29.14;100.00
23589;BME280;11972;48.078;11.876;2023-07-13T14:06:22;95540.97;;;28.17;100.00
23589;BME280;11972;48.078;11.876;2023-07-13T14:10:22;95540.88;;;27.08;100.00
23589;BME280;11972;48.078;11.876;2023-07-13T14:14:23;95543.59;;;26.39;100.00
23589;BME280;11972;48.078;11.876;2023-07-13T14:18:25;95548.47;;;25.88;100.00
23589;BME280;11972;48.078;11.876;2023-07-13T14:22:26;95556.22;;;25.45;100.00
23589;BME280;11972;48.078;11.876;2023-07-13T14:26:27;95543.03;;;25.13;100.00
23589;BME280;11972;48.078;11.876;2023-07-13T14:30:27;95540.34;;;24.87;100.00
23589;BME280;11972;48.078;11.876;2023-07-13T14:34:28;95540.59;;;25.21;100.00
23589;BME280;11972;48.078;11.876;2023-07-13T14:38:28;95537.03;;;25.36;100.00
23589;BME280;11972;48.078;11.876;2023-07-13T14:42:28;95536.09;;;25.66;100.00
23589;BME280;11972;48.078;11.876;2023-07-13T14:46:31;95533.56;;;26.40;100.00
23589;BME280;11972;48.078;11.876;2023-07-13T14:50:33;95539.91;;;26.93;100.00
23589;BME280;11972;48.078;11.876;2023-07-13T14:54:35;95534.78;;;27.74;100.00
23589;BME280;11972;48.078;11.876;2023-07-13T14:58:36;95532.00;;;27.79;100.00
23589;BME280;11972;48.078;11.876;2023-07-13T15:02:37;95534.13;;;26.76;100.00
23589;BME280;11972;48.078;11.876;2023-07-13T15:06:58;95538.13;;;26.84;100.00
23589;BME280;11972;48.078;11.876;2023-07-13T15:10:59;95536.09;;;27.29;100.00
23589;BME280;11972;48.078;11.876;2023-07-13T15:15:00;95525.44;;;28.23;100.00
23589;BME280;11972;48.078;11.876;2023-07-13T15:19:00;95518.97;;;29.63;100.00
23589;BME280;11972;48.078;11.876;2023-07-13T15:23:02;95518.13;;;30.04;100.00
23589;BME280;11972;48.078;11.876;2023-07-13T15:27:04;95522.97;;;29.52;100.00
23589;BME280;11972;48.078;11.876;2023-07-13T15:31:26;95510.47;;;29.37;100.00
23589;BME280;11972;48.078;11.876;2023-07-13T15:35:28;95525.75;;;30.30;100.00
23589;BME280;11972;48.078;11.876;2023-07-13T15:39:28;95526.38;;;29.99;100.00
23589;BME280;11972;48.078;11.876;2023-07-13T15:43:32;95526.94;;;29.00;100.00
23589;BME280;11972;48.078;11.876;2023-07-13T15:47:33;95530.69;;;28.33;100.00
23589;BME280;11972;48.078;11.876;2023-07-13T15:51:34;95520.88;;;28.89;100.00
23589;BME280;11972;48.078;11.876;2023-07-13T15:55:37;95524.59;;;28.93;100.00
23589;BME280;11972;48.078;11.876;2023-07-13T15:59:39;95511.75;;;29.12;98.32
23589;BME280;11972;48.078;11.876;2023-07-13T16:03:40;95526.75;;;28.44;96.47
23589;BME280;11972;48.078;11.876;2023-07-13T16:07:42;95536.53;;;28.78;95.68
23589;BME280;11972;48.078;11.876;2023-07-13T16:11:43;95531.81;;;28.32;93.95
23589;BME280;11972;48.078;11.876;2023-07-13T16:15:43;95540.91;;;27.56;97.02
23589;BME280;11972;48.078;11.876;2023-07-13T16:19:44;95537.38;;;28.03;97.78
23589;BME280;11972;48.078;11.876;2023-07-13T16:23:45;95529.88;;;28.33;96.94
23589;BME280;11972;48.078;11.876;2023-07-13T16:27:46;95552.97;;;27.92;96.60
23589;BME280;11972;48.078;11.876;2023-07-13T16:32:04;95551.69;;;27.13;98.78
23589;BME280;11972;48.078;11.876;2023-07-13T16:36:10;95550.19;;;27.79;98.49
23589;BME280;11972;48.078;11.876;2023-07-13T16:40:31;95556.13;;;27.81;99.79
23589;BME280;11972;48.078;11.876;2023-07-13T16:44:32;95559.66;;;28.00;98.86
23589;BME280;11972;48.078;11.876;2023-07-13T16:48:33;95561.75;;;28.08;100.00
23589;BME280;11972;48.078;11.876;2023-07-13T16:52:33;95544.44;;;28.42;100.00
23589;BME280;11972;48.078;11.876;2023-07-13T16:56:33;95546.59;;;29.57;97.87
23589;BME280;11972;48.078;11.876;2023-07-13T17:00:35;95547.22;;;31.12;98.37
23589;BME280;11972;48.078;11.876;2023-07-13T17:04:37;95545.91;;;31.32;89.19
23589;BME280;11972;48.078;11.876;2023-07-13T17:08:37;95549.59;;;29.83;88.69
23589;BME280;11972;48.078;11.876;2023-07-13T17:12:38;95549.47;;;27.68;93.27
23589;BME280;11972;48.078;11.876;2023-07-13T17:16:38;95563.22;;;26.60;97.95
23589;BME280;11972;48.078;11.876;2023-07-13T17:20:41;95564.38;;;25.99;100.00
23589;BME280;11972;48.078;11.876;2023-07-13T17:24:43;95554.78;;;26.67;100.00
23589;BME280;11972;48.078;11.876;2023-07-13T17:28:44;95550.78;;;27.23;100.00
23589;BME280;11972;48.078;11.876;2023-07-13T17:32:46;95568.22;;;27.16;100.00
23589;BME280;11972;48.078;11.876;2023-07-13T17:36:48;95562.59;;;25.85;100.00
23589;BME280;11972;48.078;11.876;2023-07-13T17:40:49;95559.25;;;25.03;100.00
23589;BME280;11972;48.078;11.876;2023-07-13T17:44:49;95560.09;;;24.62;100.00
23589;BME280;11972;48.078;11.876;2023-07-13T17:48:50;95555.13;;;24.18;100.00
23589;BME280;11972;48.078;11.876;2023-07-13T17:52:51;95566.91;;;23.82;100.00
23589;BME280;11972;48.078;11.876;2023-07-13T17:56:52;95563.22;;;24.23;100.00
23589;BME280;11972;48.078;11.876;2023-07-13T18:00:53;95553.53;;;24.22;100.00
23589;BME280;11972;48.078;11.876;2023-07-13T18:04:54;95548.69;;;24.24;100.00
23589;BME280;11972;48.078;11.876;2023-07-13T18:08:57;95556.75;;;24.19;100.00
23589;BME280;11972;48.078;11.876;2023-07-13T18:12:59;95557.34;;;24.37;100.00
23589;BME280;11972;48.078;11.876;2023-07-13T18:17:00;95555.75;;;24.51;100.00
23589;BME280;11972;48.078;11.876;2023-07-13T18:21:01;95566.03;;;24.54;100.00
23589;BME280;11972;48.078;11.876;2023-07-13T18:25:11;95551.16;;;24.46;100.00
23589;BME280;11972;48.078;11.876;2023-07-13T18:29:11;95562.09;;;23.89;100.00
23589;BME280;11972;48.078;11.876;2023-07-13T18:33:22;95559.56;;;23.14;100.00
23589;BME280;11972;48.078;11.876;2023-07-13T18:37:30;95562.88;;;22.57;100.00
23589;BME280;11972;48.078;11.876;2023-07-13T18:41:31;95560.91;;;22.15;100.00
23589;BME280;11972;48.078;11.876;2023-07-13T18:45:32;95569.66;;;21.84;100.00
23589;BME280;11972;48.078;11.876;2023-07-13T18:49:32;95564.81;;;21.37;100.00
23589;BME280;11972;48.078;11.876;2023-07-13T19:04:25;95555.66;;;19.74;100.00
23589;BME280;11972;48.078;11.876;2023-07-13T19:08:27;95564.28;;;19.24;100.00
23589;BME280;11972;48.078;11.876;2023-07-13T19:12:29;95569.44;;;18.91;100.00
23589;BME280;11972;48.078;11.876;2023-07-13T19:16:30;95574.31;;;18.70;100.00
23589;BME280;11972;48.078;11.876;2023-07-13T19:20:30;95573.22;;;18.59;100.00
23589;BME280;11972;48.078;11.876;2023-07-13T19:24:31;95578.78;;;18.46;100.00
23589;BME280;11972;48.078;11.876;2023-07-13T19:28:37;95579.34;;;18.37;100.00
23589;BME280;11972;48.078;11.876;2023-07-13T19:32:40;95582.59;;;18.39;100.00
23589;BME280;11972;48.078;11.876;2023-07-13T19:36:41;95589.13;;;18.43;100.00
23589;BME280;11972;48.078;11.876;2023-07-13T19:40:41;95589.13;;;18.43;100.00
23589;BME280;11972;48.078;11.876;2023-07-13T19:44:42;95600.06;;;18.41;100.00
23589;BME280;11972;48.078;11.876;2023-07-13T19:48:42;95603.53;;;18.42;100.00
23589;BME280;11972;48.078;11.876;2023-07-13T19:52:48;95608.44;;;18.45;100.00
23589;BME280;11972;48.078;11.876;2023-07-13T19:56:49;95617.63;;;18.49;100.00
23589;BME280;11972;48.078;11.876;2023-07-13T20:00:50;95621.47;;;18.53;100.00
23589;BME280;11972;48.078;11.876;2023-07-13T20:04:50;95629.88;;;18.56;100.00
23589;BME280;11972;48.078;11.876;2023-07-13T20:08:51;95631.81;;;18.49;100.00
23589;BME280;11972;48.078;11.876;2023-07-13T20:12:52;95631.53;;;18.39;100.00
23589;BME280;11972;48.078;11.876;2023-07-13T20:17:02;95639.06;;;18.30;100.00
23589;BME280;11972;48.078;11.876;2023-07-13T20:21:03;95640.00;;;18.24;100.00
23589;BME280;11972;48.078;11.876;2023-07-13T20:25:13;95645.66;;;18.16;100.00
23589;BME280;11972;48.078;11.876;2023-07-13T20:29:15;95643.88;;;18.10;100.00
23589;BME280;11972;48.078;11.876;2023-07-13T20:33:19;95660.22;;;18.02;100.00
23589;BME280;11972;48.078;11.876;2023-07-13T20:37:30;95653.56;;;17.93;100.00
23589;BME280;11972;48.078;11.876;2023-07-13T20:41:31;95649.34;;;17.85;100.00
23589;BME280;11972;48.078;11.876;2023-07-13T20:45:34;95650.94;;;17.74;100.00
23589;BME280;11972;48.078;11.876;2023-07-13T20:49:35;95648.97;;;17.63;100.00
23589;BME280;11972;48.078;11.876;2023-07-13T20:53:36;95652.59;;;17.50;100.00
23589;BME280;11972;48.078;11.876;2023-07-13T20:57:36;95653.69;;;17.43;100.00
23589;BME280;11972;48.078;11.876;2023-07-13T21:01:37;95653.56;;;17.38;100.00
23589;BME280;11972;48.078;11.876;2023-07-13T21:05:39;95656.28;;;17.31;100.00
23589;BME280;11972;48.078;11.876;2023-07-13T21:09:40;95651.91;;;17.18;100.00
23589;BME280;11972;48.078;11.876;2023-07-13T21:13:41;95661.59;;;17.13;100.00
23589;BME280;11972;48.078;11.876;2023-07-13T21:17:41;95658.13;;;17.12;100.00